createdAt,value
2023-04-07T00:00:21.770Z,7.56
2023-04-07T00:00:55.291Z,7.56
2023-04-07T00:01:28.287Z,7.56
2023-04-07T00:02:00.541Z,7.56
2023-04-07T00:02:33.063Z,7.56
2023-04-07T00:03:07.321Z,7.56
2023-04-07T00:03:41.050Z,7.56
2023-04-07T00:04:14.273Z,7.56
2023-04-07T00:04:46.348Z,7.56
2023-04-07T00:05:18.570Z,7.56
2023-04-07T00:05:51.600Z,7.56
2023-04-07T00:06:23.537Z,7.56
2023-04-07T00:06:55.517Z,7.63
2023-04-07T00:07:28.408Z,7.56
2023-04-07T00:08:00.434Z,7.63
2023-04-07T00:08:32.422Z,7.63
2023-04-07T00:09:05.391Z,7.63
2023-04-07T00:09:37.313Z,7.63
2023-04-07T00:10:10.356Z,7.63
2023-04-07T00:10:43.297Z,7.56
2023-04-07T00:11:15.332Z,7.56
2023-04-07T00:11:48.749Z,7.56
2023-04-07T00:12:21.780Z,7.56
2023-04-07T00:12:53.735Z,7.56
2023-04-07T00:13:26.309Z,7.56
2023-04-07T00:13:59.243Z,7.56
2023-04-07T00:14:31.135Z,7.56
2023-04-07T00:15:03.219Z,7.56
2023-04-07T00:15:36.173Z,7.56
2023-04-07T00:16:09.686Z,7.56
2023-04-07T00:16:41.801Z,7.56
2023-04-07T00:17:14.678Z,7.63
2023-04-07T00:17:46.675Z,7.63
2023-04-07T00:18:18.654Z,7.56
2023-04-07T00:18:51.546Z,7.63
2023-04-07T00:19:23.447Z,7.63
2023-04-07T00:19:55.382Z,7.56
2023-04-07T00:20:28.445Z,7.63
2023-04-07T00:21:00.337Z,7.63
2023-04-07T00:21:32.355Z,7.63
2023-04-07T00:22:05.379Z,7.56
2023-04-07T00:22:37.721Z,7.63
2023-04-07T00:23:09.830Z,7.63
2023-04-07T00:23:42.936Z,7.63
2023-04-07T00:24:18.557Z,7.63
2023-04-07T00:24:56.131Z,7.63
2023-04-07T00:25:29.089Z,7.63
2023-04-07T00:26:01.399Z,7.63
2023-04-07T00:26:33.307Z,7.63
2023-04-07T00:27:06.369Z,7.56
2023-04-07T00:27:38.729Z,7.56
2023-04-07T00:28:10.936Z,7.56
2023-04-07T00:28:43.829Z,7.63
2023-04-07T00:29:15.816Z,7.63
2023-04-07T00:29:47.797Z,7.63
2023-04-07T00:30:20.928Z,7.63
2023-04-07T00:30:53.034Z,7.63
2023-04-07T00:31:26.687Z,7.63
2023-04-07T00:31:59.721Z,7.63
2023-04-07T00:32:31.708Z,7.63
2023-04-07T00:33:05.222Z,7.63
2023-04-07T00:33:42.753Z,7.63
2023-04-07T00:34:14.915Z,7.63
2023-04-07T00:34:46.876Z,7.63
2023-04-07T00:35:20.076Z,7.63
2023-04-07T00:35:54.334Z,7.63
2023-04-07T00:36:27.096Z,7.63
2023-04-07T00:37:00.033Z,7.63
2023-04-07T00:37:32.626Z,7.63
2023-04-07T00:38:04.767Z,7.63
2023-04-07T00:38:37.625Z,7.63
2023-04-07T00:39:09.563Z,7.63
2023-04-07T00:39:41.549Z,7.63
2023-04-07T00:40:13.525Z,7.63
2023-04-07T00:40:47.026Z,7.63
2023-04-07T00:41:21.366Z,7.63
2023-04-07T00:41:53.518Z,7.63
2023-04-07T00:42:26.556Z,7.63
2023-04-07T00:42:58.576Z,7.63
2023-04-07T00:43:30.539Z,7.63
2023-04-07T00:44:03.432Z,7.63
2023-04-07T00:44:35.378Z,7.63
2023-04-07T00:45:08.558Z,7.63
2023-04-07T00:45:41.555Z,7.63
2023-04-07T00:46:13.564Z,7.63
2023-04-07T00:46:48.131Z,7.63
2023-04-07T00:47:21.614Z,7.63
2023-04-07T00:47:54.020Z,7.63
2023-04-07T00:48:26.091Z,7.63
2023-04-07T00:48:58.073Z,7.63
2023-04-07T00:49:32.678Z,7.63
2023-04-07T00:50:05.216Z,7.63
2023-04-07T00:50:37.540Z,7.63
2023-04-07T00:51:10.488Z,7.63
2023-04-07T00:51:42.438Z,7.63
2023-04-07T00:52:15.213Z,7.63
2023-04-07T00:52:47.351Z,7.63
2023-04-07T00:53:21.017Z,7.63
2023-04-07T00:53:54.687Z,7.63
2023-04-07T00:54:26.719Z,7.63
2023-04-07T00:55:01.004Z,7.63
2023-04-07T00:55:32.932Z,7.63
2023-04-07T00:56:05.581Z,7.63
2023-04-07T00:56:38.581Z,7.63
2023-04-07T00:57:10.954Z,7.63
2023-04-07T00:57:46.613Z,7.63
2023-04-07T00:58:18.716Z,7.63
2023-04-07T00:58:50.818Z,7.63
2023-04-07T00:59:23.828Z,7.63
2023-04-07T00:59:56.377Z,7.63
2023-04-07T01:00:28.555Z,7.63
2023-04-07T01:01:08.477Z,7.63
2023-04-07T01:01:51.062Z,7.63
2023-04-07T01:02:31.997Z,7.63
2023-04-07T01:03:09.605Z,7.63
2023-04-07T01:03:47.973Z,7.63
2023-04-07T01:04:27.851Z,7.63
2023-04-07T01:05:11.610Z,7.63
2023-04-07T01:05:51.666Z,7.63
2023-04-07T01:06:29.761Z,7.63
2023-04-07T01:07:06.256Z,7.63
2023-04-07T01:07:53.231Z,7.63
2023-04-07T01:08:33.109Z,7.56
2023-04-07T01:09:24.150Z,7.56
2023-04-07T01:10:02.110Z,7.56
2023-04-07T01:10:47.124Z,7.56
2023-04-07T01:11:26.976Z,7.56
2023-04-07T01:12:05.877Z,7.56
2023-04-07T01:12:46.867Z,7.56
2023-04-07T01:13:28.729Z,7.56
2023-04-07T01:14:11.308Z,7.56
2023-04-07T01:14:52.054Z,7.56
2023-04-07T01:15:48.777Z,7.56
2023-04-07T01:16:27.161Z,7.56
2023-04-07T01:17:01.957Z,7.56
2023-04-07T01:17:37.941Z,7.63
2023-04-07T01:18:15.108Z,7.63
2023-04-07T01:18:51.086Z,7.63
2023-04-07T01:19:34.845Z,7.63
2023-04-07T01:20:10.644Z,7.63
2023-04-07T01:20:45.396Z,7.63
2023-04-07T01:21:20.953Z,7.63
2023-04-07T01:21:57.614Z,7.63
2023-04-07T01:22:34.469Z,7.63
2023-04-07T01:23:09.280Z,7.63
2023-04-07T01:24:11.873Z,7.63
2023-04-07T01:25:03.871Z,7.63
2023-04-07T01:26:00.510Z,7.63
2023-04-07T01:26:34.586Z,7.63
2023-04-07T01:27:21.356Z,7.63
2023-04-07T01:28:03.237Z,7.63
2023-04-07T01:28:51.457Z,7.63
2023-04-07T01:29:33.042Z,7.63
2023-04-07T01:30:10.194Z,7.63
2023-04-07T01:30:45.915Z,7.63
2023-04-07T01:31:17.994Z,7.63
2023-04-07T01:31:51.230Z,7.63
2023-04-07T01:32:27.414Z,7.63
2023-04-07T01:33:01.763Z,7.63
2023-04-07T01:33:36.655Z,7.56
2023-04-07T01:34:12.909Z,7.63
2023-04-07T01:34:47.203Z,7.56
2023-04-07T01:35:20.263Z,7.63
2023-04-07T01:35:54.043Z,7.63
2023-04-07T01:36:28.302Z,7.63
2023-04-07T01:37:02.559Z,7.56
2023-04-07T01:37:36.012Z,7.56
2023-04-07T01:38:09.164Z,7.63
2023-04-07T01:38:41.983Z,7.63
2023-04-07T01:39:15.615Z,7.63
2023-04-07T01:39:47.647Z,7.56
2023-04-07T01:40:22.670Z,7.63
2023-04-07T01:40:58.998Z,7.63
2023-04-07T01:41:31.634Z,7.63
2023-04-07T01:42:04.798Z,7.63
2023-04-07T01:42:39.750Z,7.63
2023-04-07T01:43:12.399Z,7.63
2023-04-07T01:43:46.463Z,7.63
2023-04-07T01:44:20.076Z,7.63
2023-04-07T01:44:53.876Z,7.63
2023-04-07T01:45:27.583Z,7.63
2023-04-07T01:46:01.214Z,7.63
2023-04-07T01:46:33.181Z,7.63
2023-04-07T01:47:06.202Z,7.63
2023-04-07T01:47:40.416Z,7.63
2023-04-07T01:48:14.543Z,7.63
2023-04-07T01:48:48.113Z,7.63
2023-04-07T01:49:20.453Z,7.63
2023-04-07T01:49:53.814Z,7.63
2023-04-07T01:50:27.377Z,7.63
2023-04-07T01:51:00.738Z,7.63
2023-04-07T01:51:34.825Z,7.69
2023-04-07T01:52:07.939Z,7.69
2023-04-07T01:52:40.631Z,7.69
2023-04-07T01:53:13.001Z,7.69
2023-04-07T01:53:47.281Z,7.63
2023-04-07T01:54:20.217Z,7.63
2023-04-07T01:54:52.658Z,7.63
2023-04-07T01:55:26.407Z,7.63
2023-04-07T01:56:07.160Z,7.63
2023-04-07T01:56:41.775Z,7.63
2023-04-07T01:57:15.452Z,7.63
2023-04-07T01:57:47.769Z,7.63
2023-04-07T01:58:23.506Z,7.63
2023-04-07T01:58:56.478Z,7.63
2023-04-07T01:59:30.804Z,7.63
2023-04-07T02:00:07.365Z,7.63
2023-04-07T02:00:48.062Z,7.63
2023-04-07T02:01:23.983Z,7.63
2023-04-07T02:01:56.706Z,7.63
2023-04-07T02:02:30.404Z,7.63
2023-04-07T02:03:08.776Z,7.63
2023-04-07T02:03:50.736Z,7.63
2023-04-07T02:04:29.501Z,7.63
2023-04-07T02:05:06.470Z,7.63
2023-04-07T02:05:39.841Z,7.63
2023-04-07T02:06:19.148Z,7.63
2023-04-07T02:06:54.598Z,7.63
2023-04-07T02:07:41.347Z,7.63
2023-04-07T02:08:16.280Z,7.63
2023-04-07T02:08:52.706Z,7.56
2023-04-07T02:09:28.372Z,7.56
2023-04-07T02:10:04.681Z,7.56
2023-04-07T02:10:39.174Z,7.56
2023-04-07T02:11:14.608Z,7.56
2023-04-07T02:11:46.647Z,7.56
2023-04-07T02:12:20.494Z,7.56
2023-04-07T02:13:08.985Z,7.56
2023-04-07T02:13:43.615Z,7.56
2023-04-07T02:14:17.945Z,7.50
2023-04-07T02:15:04.859Z,7.50
2023-04-07T02:15:40.749Z,7.50
2023-04-07T02:16:14.005Z,7.50
2023-04-07T02:16:49.051Z,7.50
2023-04-07T02:17:22.646Z,7.50
2023-04-07T02:17:56.494Z,7.50
2023-04-07T02:18:30.466Z,7.50
2023-04-07T02:19:03.094Z,7.50
2023-04-07T02:19:35.964Z,7.50
2023-04-07T02:20:11.053Z,7.50
2023-04-07T02:20:45.108Z,7.50
2023-04-07T02:21:18.501Z,7.50
2023-04-07T02:21:53.341Z,7.50
2023-04-07T02:22:26.299Z,7.44
2023-04-07T02:22:58.691Z,7.50
2023-04-07T02:23:31.748Z,7.44
2023-04-07T02:24:06.557Z,7.44
2023-04-07T02:24:41.633Z,7.44
2023-04-07T02:25:25.398Z,7.44
2023-04-07T02:25:58.938Z,7.44
2023-04-07T02:26:35.392Z,7.44
2023-04-07T02:27:08.479Z,7.44
2023-04-07T02:27:40.459Z,7.44
2023-04-07T02:28:12.420Z,7.44
2023-04-07T02:28:45.341Z,7.44
2023-04-07T02:29:17.319Z,7.44
2023-04-07T02:29:49.264Z,7.44
2023-04-07T02:30:21.478Z,7.44
2023-04-07T02:30:55.983Z,7.44
2023-04-07T02:31:28.035Z,7.44
2023-04-07T02:32:00.045Z,7.44
2023-04-07T02:32:35.913Z,7.44
2023-04-07T02:33:07.944Z,7.44
2023-04-07T02:33:40.365Z,7.44
2023-04-07T02:34:13.265Z,7.44
2023-04-07T02:34:46.240Z,7.38
2023-04-07T02:35:18.379Z,7.44
2023-04-07T02:35:51.485Z,7.44
2023-04-07T02:36:23.512Z,7.44
2023-04-07T02:36:55.529Z,7.38
2023-04-07T02:37:28.501Z,7.38
2023-04-07T02:38:00.459Z,7.38
2023-04-07T02:38:32.540Z,7.38
2023-04-07T02:39:05.536Z,7.38
2023-04-07T02:39:37.457Z,7.38
2023-04-07T02:40:09.929Z,7.31
2023-04-07T02:40:42.997Z,7.31
2023-04-07T02:41:14.945Z,7.31
2023-04-07T02:41:46.921Z,7.31
2023-04-07T02:42:19.833Z,7.31
2023-04-07T02:42:51.838Z,7.31
2023-04-07T02:43:25.317Z,7.31
2023-04-07T02:43:58.421Z,7.25
2023-04-07T02:44:31.293Z,7.31
2023-04-07T02:45:03.321Z,7.25
2023-04-07T02:45:36.706Z,7.25
2023-04-07T02:46:10.453Z,7.25
2023-04-07T02:46:42.365Z,7.25
2023-04-07T02:47:15.552Z,7.25
2023-04-07T02:47:47.981Z,7.25
2023-04-07T02:48:23.027Z,7.25
2023-04-07T02:48:55.965Z,7.25
2023-04-07T02:49:27.895Z,7.25
2023-04-07T02:50:00.088Z,7.25
2023-04-07T02:50:33.343Z,7.25
2023-04-07T02:51:05.665Z,7.25
2023-04-07T02:51:37.894Z,7.25
2023-04-07T02:52:11.247Z,7.19
2023-04-07T02:52:43.191Z,7.19
2023-04-07T02:53:19.587Z,7.19
2023-04-07T02:53:51.687Z,7.19
2023-04-07T02:54:23.941Z,7.19
2023-04-07T02:54:56.136Z,7.19
2023-04-07T02:55:32.485Z,7.19
2023-04-07T02:56:04.912Z,7.19
2023-04-07T02:56:36.883Z,7.19
2023-04-07T02:57:09.933Z,7.19
2023-04-07T02:57:42.006Z,7.13
2023-04-07T02:58:26.813Z,7.13
2023-04-07T02:58:59.771Z,7.19
2023-04-07T02:59:32.166Z,7.13
2023-04-07T03:00:05.602Z,7.13
2023-04-07T03:01:02.635Z,7.13
2023-04-07T03:01:40.521Z,7.13
2023-04-07T03:02:13.041Z,7.13
2023-04-07T03:02:46.103Z,7.13
2023-04-07T03:03:19.991Z,7.13
2023-04-07T03:04:12.359Z,7.13
2023-04-07T03:04:45.359Z,7.13
2023-04-07T03:05:17.834Z,7.13
2023-04-07T03:05:49.880Z,7.13
2023-04-07T03:06:22.796Z,7.13
2023-04-07T03:07:09.622Z,7.13
2023-04-07T03:07:41.825Z,7.13
2023-04-07T03:08:16.122Z,7.13
2023-04-07T03:08:48.069Z,7.13
2023-04-07T03:09:20.029Z,7.13
2023-04-07T03:09:52.135Z,7.13
2023-04-07T03:10:25.477Z,7.13
2023-04-07T03:10:57.462Z,7.13
2023-04-07T03:11:33.803Z,7.13
2023-04-07T03:12:07.362Z,7.13
2023-04-07T03:12:41.255Z,7.13
2023-04-07T03:13:16.234Z,7.13
2023-04-07T03:13:49.378Z,7.13
2023-04-07T03:14:21.333Z,7.13
2023-04-07T03:14:55.113Z,7.13
2023-04-07T03:15:28.871Z,7.13
2023-04-07T03:16:01.144Z,7.13
2023-04-07T03:16:39.775Z,7.13
2023-04-07T03:17:16.026Z,7.13
2023-04-07T03:17:49.693Z,7.13
2023-04-07T03:18:23.032Z,7.13
2023-04-07T03:18:55.812Z,7.13
2023-04-07T03:19:29.142Z,7.13
2023-04-07T03:20:01.645Z,7.13
2023-04-07T03:20:33.595Z,7.13
2023-04-07T03:21:12.793Z,7.13
2023-04-07T03:21:45.520Z,7.13
2023-04-07T03:22:17.548Z,7.13
2023-04-07T03:22:54.969Z,7.13
2023-04-07T03:23:31.452Z,7.13
2023-04-07T03:24:05.405Z,7.13
2023-04-07T03:24:39.532Z,7.13
2023-04-07T03:25:11.485Z,7.13
2023-04-07T03:25:44.575Z,7.13
2023-04-07T03:26:19.005Z,7.13
2023-04-07T03:26:51.579Z,7.13
2023-04-07T03:27:29.654Z,7.13
2023-04-07T03:28:02.746Z,7.19
2023-04-07T03:28:46.510Z,7.13
2023-04-07T03:29:19.746Z,7.13
2023-04-07T03:29:53.518Z,7.13
2023-04-07T03:30:25.776Z,7.13
2023-04-07T03:30:57.856Z,7.13
2023-04-07T03:31:31.104Z,7.13
2023-04-07T03:32:04.800Z,7.13
2023-04-07T03:32:36.966Z,7.13
2023-04-07T03:33:09.995Z,7.13
2023-04-07T03:33:41.979Z,7.13
2023-04-07T03:34:13.942Z,7.13
2023-04-07T03:34:46.902Z,7.13
2023-04-07T03:35:19.224Z,7.13
2023-04-07T03:35:51.502Z,7.13
2023-04-07T03:36:25.358Z,7.13
2023-04-07T03:36:57.996Z,7.13
2023-04-07T03:37:30.524Z,7.13
2023-04-07T03:38:03.413Z,7.13
2023-04-07T03:38:35.395Z,7.13
2023-04-07T03:39:09.759Z,7.13
2023-04-07T03:39:43.097Z,7.13
2023-04-07T03:40:28.545Z,7.13
2023-04-07T03:41:00.540Z,7.13
2023-04-07T03:41:33.614Z,7.13
2023-04-07T03:42:05.837Z,7.13
2023-04-07T03:42:39.960Z,7.13
2023-04-07T03:43:15.725Z,7.13
2023-04-07T03:43:51.956Z,7.13
2023-04-07T03:44:26.146Z,7.13
2023-04-07T03:44:58.164Z,7.13
2023-04-07T03:45:30.433Z,7.19
2023-04-07T03:46:03.497Z,7.19
2023-04-07T03:46:36.468Z,7.13
2023-04-07T03:47:10.426Z,7.19
2023-04-07T03:47:44.347Z,7.13
2023-04-07T03:48:17.170Z,7.19
2023-04-07T03:49:00.622Z,7.19
2023-04-07T03:49:37.476Z,7.13
2023-04-07T03:50:10.554Z,7.13
2023-04-07T03:50:52.619Z,7.19
2023-04-07T03:51:27.859Z,7.13
2023-04-07T03:52:02.040Z,7.13
2023-04-07T03:52:34.076Z,7.13
2023-04-07T03:53:16.760Z,7.19
2023-04-07T03:53:49.003Z,7.13
2023-04-07T03:54:40.459Z,7.19
2023-04-07T03:55:12.851Z,7.13
2023-04-07T03:55:46.239Z,7.13
2023-04-07T03:56:28.896Z,7.19
2023-04-07T03:57:02.970Z,7.19
2023-04-07T03:57:36.838Z,7.13
2023-04-07T03:58:10.103Z,7.13
2023-04-07T03:58:42.963Z,7.19
2023-04-07T03:59:19.424Z,7.13
2023-04-07T04:00:00.425Z,7.19
2023-04-07T04:00:35.025Z,7.19
2023-04-07T04:01:12.381Z,7.19
2023-04-07T04:01:46.019Z,7.19
2023-04-07T04:02:23.463Z,7.19
2023-04-07T04:02:58.183Z,7.19
2023-04-07T04:03:30.596Z,7.19
2023-04-07T04:04:14.475Z,7.19
2023-04-07T04:04:48.295Z,7.19
2023-04-07T04:05:20.458Z,7.19
2023-04-07T04:05:54.023Z,7.19
2023-04-07T04:06:32.195Z,7.19
2023-04-07T04:07:16.727Z,7.19
2023-04-07T04:07:53.129Z,7.19
2023-04-07T04:08:27.201Z,7.19
2023-04-07T04:08:59.169Z,7.19
2023-04-07T04:09:32.454Z,7.19
2023-04-07T04:10:05.443Z,7.19
2023-04-07T04:10:42.655Z,7.19
2023-04-07T04:11:15.638Z,7.19
2023-04-07T04:11:56.340Z,7.19
2023-04-07T04:12:29.290Z,7.19
2023-04-07T04:13:08.867Z,7.19
2023-04-07T04:13:42.070Z,7.19
2023-04-07T04:14:14.036Z,7.19
2023-04-07T04:14:47.536Z,7.19
2023-04-07T04:15:21.507Z,7.19
2023-04-07T04:15:54.932Z,7.19
2023-04-07T04:16:27.416Z,7.19
2023-04-07T04:17:05.411Z,7.19
2023-04-07T04:17:47.196Z,7.19
2023-04-07T04:18:19.858Z,7.19
2023-04-07T04:18:53.257Z,7.19
2023-04-07T04:19:27.842Z,7.19
2023-04-07T04:20:02.139Z,7.19
2023-04-07T04:20:55.462Z,7.25
2023-04-07T04:21:28.772Z,7.25
2023-04-07T04:22:01.746Z,7.25
2023-04-07T04:22:39.694Z,7.25
2023-04-07T04:23:11.962Z,7.25
2023-04-07T04:23:45.134Z,7.25
2023-04-07T04:24:18.353Z,7.25
2023-04-07T04:24:51.764Z,7.25
2023-04-07T04:25:24.681Z,7.25
2023-04-07T04:26:03.891Z,7.25
2023-04-07T04:26:37.477Z,7.25
2023-04-07T04:27:15.574Z,7.25
2023-04-07T04:27:49.837Z,7.25
2023-04-07T04:28:26.642Z,7.25
2023-04-07T04:28:59.117Z,7.25
2023-04-07T04:29:32.809Z,7.25
2023-04-07T04:30:09.067Z,7.25
2023-04-07T04:30:46.105Z,7.31
2023-04-07T04:31:18.170Z,7.31
2023-04-07T04:31:51.204Z,7.31
2023-04-07T04:32:24.403Z,7.31
2023-04-07T04:32:58.566Z,7.31
2023-04-07T04:33:40.444Z,7.31
2023-04-07T04:34:12.419Z,7.31
2023-04-07T04:34:45.586Z,7.31
2023-04-07T04:35:19.624Z,7.31
2023-04-07T04:36:06.788Z,7.31
2023-04-07T04:36:40.522Z,7.31
2023-04-07T04:37:13.549Z,7.31
2023-04-07T04:37:48.419Z,7.31
2023-04-07T04:38:20.486Z,7.31
2023-04-07T04:39:11.925Z,7.31
2023-04-07T04:39:44.269Z,7.31
2023-04-07T04:40:18.550Z,7.31
2023-04-07T04:40:54.433Z,7.31
2023-04-07T04:41:31.668Z,7.31
2023-04-07T04:42:05.140Z,7.31
2023-04-07T04:42:41.623Z,7.31
2023-04-07T04:43:15.730Z,7.31
2023-04-07T04:43:48.058Z,7.31
2023-04-07T04:44:25.383Z,7.38
2023-04-07T04:44:57.753Z,7.38
2023-04-07T04:45:30.142Z,7.31
2023-04-07T04:46:03.575Z,7.38
2023-04-07T04:46:40.362Z,7.38
2023-04-07T04:47:12.979Z,7.38
2023-04-07T04:47:46.671Z,7.31
2023-04-07T04:48:20.543Z,7.31
2023-04-07T04:48:54.083Z,7.31
2023-04-07T04:49:28.721Z,7.31
2023-04-07T04:50:04.431Z,7.31
2023-04-07T04:50:39.088Z,7.31
2023-04-07T04:51:16.399Z,7.31
2023-04-07T04:51:51.329Z,7.31
2023-04-07T04:52:23.266Z,7.31
2023-04-07T04:52:56.751Z,7.31
2023-04-07T04:53:29.334Z,7.31
2023-04-07T04:54:06.423Z,7.38
2023-04-07T04:54:39.064Z,7.38
2023-04-07T04:55:12.775Z,7.31
2023-04-07T04:55:52.033Z,7.31
2023-04-07T04:56:28.006Z,7.38
2023-04-07T04:56:59.966Z,7.38
2023-04-07T04:57:34.704Z,7.38
2023-04-07T04:58:06.935Z,7.31
2023-04-07T04:58:51.163Z,7.31
2023-04-07T04:59:31.103Z,7.31
2023-04-07T05:00:11.461Z,7.31
2023-04-07T05:00:45.595Z,7.38
2023-04-07T05:01:18.741Z,7.38
2023-04-07T05:01:58.299Z,7.38
2023-04-07T05:02:30.865Z,7.38
2023-04-07T05:03:04.350Z,7.38
2023-04-07T05:03:42.283Z,7.38
2023-04-07T05:04:24.548Z,7.38
2023-04-07T05:05:06.412Z,7.38
2023-04-07T05:05:38.857Z,7.38
2023-04-07T05:06:12.326Z,7.38
2023-04-07T05:06:46.288Z,7.38
2023-04-07T05:07:20.873Z,7.38
2023-04-07T05:07:53.994Z,7.38
2023-04-07T05:08:27.288Z,7.38
2023-04-07T05:08:59.710Z,7.38
2023-04-07T05:09:38.266Z,7.38
2023-04-07T05:10:10.520Z,7.38
2023-04-07T05:10:47.926Z,7.38
2023-04-07T05:11:24.765Z,7.38
2023-04-07T05:11:59.942Z,7.38
2023-04-07T05:12:33.622Z,7.44
2023-04-07T05:13:07.910Z,7.44
2023-04-07T05:13:40.791Z,7.38
2023-04-07T05:14:13.568Z,7.38
2023-04-07T05:14:51.133Z,7.38
2023-04-07T05:15:23.633Z,7.38
2023-04-07T05:15:56.253Z,7.44
2023-04-07T05:16:28.374Z,7.38
2023-04-07T05:17:01.853Z,7.38
2023-04-07T05:17:34.203Z,7.44
2023-04-07T05:18:07.439Z,7.38
2023-04-07T05:18:40.391Z,7.44
2023-04-07T05:19:13.743Z,7.44
2023-04-07T05:19:45.867Z,7.44
2023-04-07T05:20:28.268Z,7.38
2023-04-07T05:21:01.856Z,7.44
2023-04-07T05:21:34.430Z,7.44
2023-04-07T05:22:09.920Z,7.38
2023-04-07T05:22:48.555Z,7.38
2023-04-07T05:23:20.880Z,7.38
2023-04-07T05:23:55.840Z,7.38
2023-04-07T05:24:29.912Z,7.38
2023-04-07T05:25:06.389Z,7.38
2023-04-07T05:25:39.958Z,7.38
2023-04-07T05:26:11.882Z,7.44
2023-04-07T05:26:44.356Z,7.44
2023-04-07T05:27:17.274Z,7.38
2023-04-07T05:27:52.300Z,7.44
2023-04-07T05:28:27.103Z,7.44
2023-04-07T05:29:02.836Z,7.44
2023-04-07T05:29:34.793Z,7.38
2023-04-07T05:30:12.631Z,7.38
2023-04-07T05:30:44.647Z,7.38
2023-04-07T05:31:16.686Z,7.38
2023-04-07T05:31:49.683Z,7.44
2023-04-07T05:32:22.499Z,7.38
2023-04-07T05:32:56.201Z,7.44
2023-04-07T05:33:48.762Z,7.38
2023-04-07T05:34:23.496Z,7.44
2023-04-07T05:34:59.266Z,7.44
2023-04-07T05:35:36.647Z,7.44
2023-04-07T05:36:08.901Z,7.44
2023-04-07T05:36:41.672Z,7.44
2023-04-07T05:37:14.668Z,7.44
2023-04-07T05:37:47.040Z,7.44
2023-04-07T05:38:19.028Z,7.44
2023-04-07T05:38:52.071Z,7.44
2023-04-07T05:39:24.357Z,7.44
2023-04-07T05:40:00.287Z,7.44
2023-04-07T05:40:32.326Z,7.44
2023-04-07T05:41:07.102Z,7.44
2023-04-07T05:41:42.287Z,7.44
2023-04-07T05:42:15.101Z,7.44
2023-04-07T05:42:48.965Z,7.44
2023-04-07T05:43:21.993Z,7.44
2023-04-07T05:43:54.494Z,7.50
2023-04-07T05:44:27.097Z,7.50
2023-04-07T05:45:01.667Z,7.50
2023-04-07T05:45:34.246Z,7.44
2023-04-07T05:46:06.449Z,7.50
2023-04-07T05:46:43.785Z,7.50
2023-04-07T05:47:16.400Z,7.50
2023-04-07T05:47:50.655Z,7.50
2023-04-07T05:48:29.269Z,7.50
2023-04-07T05:49:18.341Z,7.50
2023-04-07T05:49:55.806Z,7.50
2023-04-07T05:50:29.292Z,7.50
2023-04-07T05:51:04.218Z,7.50
2023-04-07T05:51:36.162Z,7.50
2023-04-07T05:52:15.393Z,7.50
2023-04-07T05:52:51.895Z,7.50
2023-04-07T05:53:30.653Z,7.50
2023-04-07T05:54:03.490Z,7.50
2023-04-07T05:54:36.212Z,7.56
2023-04-07T05:55:11.031Z,7.56
2023-04-07T05:55:43.384Z,7.56
2023-04-07T05:56:19.041Z,7.56
2023-04-07T05:56:53.816Z,7.56
2023-04-07T05:57:28.358Z,7.56
2023-04-07T05:58:02.167Z,7.56
2023-04-07T05:58:37.459Z,7.56
2023-04-07T05:59:10.010Z,7.56
2023-04-07T05:59:42.364Z,7.56
2023-04-07T06:00:16.603Z,7.56
2023-04-07T06:00:55.035Z,7.56
2023-04-07T06:01:27.941Z,7.56
2023-04-07T06:02:02.102Z,7.56
2023-04-07T06:02:36.039Z,7.56
2023-04-07T06:03:08.971Z,7.56
2023-04-07T06:03:54.278Z,7.56
2023-04-07T06:04:30.141Z,7.56
2023-04-07T06:05:06.463Z,7.56
2023-04-07T06:05:43.801Z,7.63
2023-04-07T06:06:18.924Z,7.63
2023-04-07T06:06:55.656Z,7.63
2023-04-07T06:07:29.603Z,7.63
2023-04-07T06:08:02.844Z,7.63
2023-04-07T06:08:37.619Z,7.63
2023-04-07T06:09:10.661Z,7.63
2023-04-07T06:09:42.783Z,7.63
2023-04-07T06:10:15.840Z,7.63
2023-04-07T06:10:48.003Z,7.63
2023-04-07T06:11:21.676Z,7.69
2023-04-07T06:11:54.442Z,7.63
2023-04-07T06:12:28.540Z,7.69
2023-04-07T06:13:01.238Z,7.69
2023-04-07T06:13:36.846Z,7.69
2023-04-07T06:14:11.023Z,7.69
2023-04-07T06:14:43.713Z,7.69
2023-04-07T06:15:15.840Z,7.69
2023-04-07T06:15:49.763Z,7.69
2023-04-07T06:16:22.360Z,7.69
2023-04-07T06:16:54.429Z,7.69
2023-04-07T06:17:27.484Z,7.69
2023-04-07T06:18:03.552Z,7.69
2023-04-07T06:18:36.287Z,7.69
2023-04-07T06:19:10.550Z,7.69
2023-04-07T06:19:42.646Z,7.69
2023-04-07T06:20:16.698Z,7.69
2023-04-07T06:20:50.232Z,7.69
2023-04-07T06:21:25.606Z,7.69
2023-04-07T06:21:58.980Z,7.69
2023-04-07T06:22:31.444Z,7.69
2023-04-07T06:23:03.906Z,7.69
2023-04-07T06:23:37.119Z,7.69
2023-04-07T06:24:12.001Z,7.69
2023-04-07T06:24:44.219Z,7.69
2023-04-07T06:25:18.119Z,7.69
2023-04-07T06:25:53.264Z,7.69
2023-04-07T06:26:25.869Z,7.69
2023-04-07T06:26:59.561Z,7.69
2023-04-07T06:27:38.721Z,7.69
2023-04-07T06:28:11.282Z,7.69
2023-04-07T06:28:44.445Z,7.69
2023-04-07T06:29:19.938Z,7.69
2023-04-07T06:29:52.184Z,7.75
2023-04-07T06:30:25.989Z,7.75
2023-04-07T06:30:59.606Z,7.75
2023-04-07T06:31:32.984Z,7.75
2023-04-07T06:32:05.187Z,7.75
2023-04-07T06:32:38.169Z,7.75
2023-04-07T06:33:10.499Z,7.75
2023-04-07T06:33:42.444Z,7.75
2023-04-07T06:34:16.523Z,7.75
2023-04-07T06:34:48.596Z,7.75
2023-04-07T06:35:23.397Z,7.75
2023-04-07T06:35:56.640Z,7.75
2023-04-07T06:36:30.134Z,7.75
2023-04-07T06:37:02.569Z,7.81
2023-04-07T06:37:36.503Z,7.81
2023-04-07T06:38:08.688Z,7.81
2023-04-07T06:38:40.991Z,7.81
2023-04-07T06:39:13.908Z,7.88
2023-04-07T06:39:45.852Z,7.88
2023-04-07T06:40:17.956Z,7.88
2023-04-07T06:40:50.912Z,7.88
2023-04-07T06:41:22.940Z,7.94
2023-04-07T06:42:01.537Z,7.94
2023-04-07T06:42:37.524Z,7.94
2023-04-07T06:43:16.207Z,8.00
2023-04-07T06:43:56.455Z,8.00
2023-04-07T06:44:28.397Z,8.00
2023-04-07T06:45:00.572Z,8.00
2023-04-07T06:45:33.968Z,8.00
2023-04-07T06:46:08.562Z,8.00
2023-04-07T06:46:42.286Z,8.00
2023-04-07T06:47:40.155Z,8.00
2023-04-07T06:48:12.148Z,8.00
2023-04-07T06:48:49.443Z,8.00
2023-04-07T06:49:23.133Z,8.00
2023-04-07T06:49:55.852Z,8.00
2023-04-07T06:50:29.780Z,8.00
2023-04-07T06:51:03.359Z,8.00
2023-04-07T06:51:35.441Z,8.00
2023-04-07T06:52:08.768Z,8.00
2023-04-07T06:52:41.094Z,8.00
2023-04-07T06:53:14.381Z,8.00
2023-04-07T06:53:48.717Z,8.00
2023-04-07T06:54:22.050Z,8.00
2023-04-07T06:54:54.133Z,8.00
2023-04-07T06:55:27.264Z,8.00
2023-04-07T06:56:08.101Z,8.00
2023-04-07T06:56:40.528Z,8.00
2023-04-07T06:57:12.515Z,8.00
2023-04-07T06:57:45.496Z,8.00
2023-04-07T06:58:17.566Z,8.00
2023-04-07T06:58:49.728Z,8.00
2023-04-07T06:59:23.197Z,8.00
2023-04-07T06:59:55.532Z,8.00
2023-04-07T07:00:30.541Z,8.00
2023-04-07T07:01:06.473Z,8.00
2023-04-07T07:01:38.649Z,8.00
2023-04-07T07:02:12.368Z,8.00
2023-04-07T07:02:45.198Z,8.00
2023-04-07T07:03:17.580Z,8.00
2023-04-07T07:03:51.049Z,8.00
2023-04-07T07:04:23.510Z,8.00
2023-04-07T07:04:55.922Z,8.00
2023-04-07T07:05:30.265Z,8.06
2023-04-07T07:06:02.652Z,8.06
2023-04-07T07:06:34.723Z,8.06
2023-04-07T07:07:07.730Z,8.06
2023-04-07T07:07:39.769Z,8.06
2023-04-07T07:08:11.907Z,8.06
2023-04-07T07:08:45.138Z,8.06
2023-04-07T07:09:18.190Z,8.06
2023-04-07T07:09:50.420Z,8.06
2023-04-07T07:10:23.713Z,8.06
2023-04-07T07:10:56.161Z,8.06
2023-04-07T07:11:29.189Z,8.06
2023-04-07T07:12:03.998Z,8.06
2023-04-07T07:12:36.326Z,8.13
2023-04-07T07:13:09.457Z,8.13
2023-04-07T07:13:41.362Z,8.13
2023-04-07T07:14:14.426Z,8.13
2023-04-07T07:14:46.693Z,8.13
2023-04-07T07:15:18.910Z,8.13
2023-04-07T07:15:52.234Z,8.13
2023-04-07T07:16:24.265Z,8.13
2023-04-07T07:16:56.432Z,8.19
2023-04-07T07:17:29.674Z,8.19
2023-04-07T07:18:01.925Z,8.19
2023-04-07T07:18:34.063Z,8.19
2023-04-07T07:19:07.221Z,8.19
2023-04-07T07:19:39.209Z,8.19
2023-04-07T07:20:14.731Z,8.13
2023-04-07T07:20:49.369Z,8.19
2023-04-07T07:21:21.343Z,8.19
2023-04-07T07:21:53.378Z,8.19
2023-04-07T07:22:26.718Z,8.19
2023-04-07T07:22:59.813Z,8.19
2023-04-07T07:23:33.959Z,8.19
2023-04-07T07:24:06.239Z,8.19
2023-04-07T07:24:38.178Z,8.19
2023-04-07T07:25:11.885Z,8.19
2023-04-07T07:25:43.821Z,8.19
2023-04-07T07:26:16.758Z,8.19
2023-04-07T07:26:48.738Z,8.19
2023-04-07T07:27:20.677Z,8.19
2023-04-07T07:27:54.001Z,8.19
2023-04-07T07:28:26.477Z,8.19
2023-04-07T07:28:59.431Z,8.19
2023-04-07T07:29:31.988Z,8.19
2023-04-07T07:30:04.822Z,8.25
2023-04-07T07:30:40.322Z,8.25
2023-04-07T07:31:13.312Z,8.25
2023-04-07T07:31:45.335Z,8.19
2023-04-07T07:32:18.340Z,8.25
2023-04-07T07:32:51.061Z,8.25
2023-04-07T07:33:24.173Z,8.25
2023-04-07T07:33:56.098Z,8.25
2023-04-07T07:34:28.056Z,8.25
2023-04-07T07:35:01.622Z,8.31
2023-04-07T07:35:37.920Z,8.31
2023-04-07T07:36:12.663Z,8.31
2023-04-07T07:36:47.488Z,8.31
2023-04-07T07:37:19.650Z,8.38
2023-04-07T07:37:53.914Z,8.38
2023-04-07T07:38:27.995Z,8.38
2023-04-07T07:39:01.499Z,8.38
2023-04-07T07:39:35.861Z,8.44
2023-04-07T07:40:09.244Z,8.44